createdAt,value
2023-01-03T00:11:44.950Z,1028.46
2023-01-03T00:25:44.958Z,1028.3899999999999
2023-01-03T00:39:45.021Z,1028.26
2023-01-03T00:53:45.002Z,1028.38
2023-01-03T01:07:45.000Z,1028.45
2023-01-03T01:21:44.997Z,1028.51
2023-01-03T01:35:44.970Z,1028.6
2023-01-03T01:49:44.982Z,1028.4
2023-01-03T02:03:44.994Z,1028.4099999999999
2023-01-03T02:17:45.003Z,1028.3400000000001
2023-01-03T02:31:45.027Z,1028.29
2023-01-03T02:45:45.042Z,1028.33
2023-01-03T02:59:45.165Z,1028.22
2023-01-03T03:13:45.140Z,1028.25
2023-01-03T03:27:45.155Z,1028.28
2023-01-03T03:41:45.160Z,1028.15
2023-01-03T03:55:45.161Z,1028.28
2023-01-03T04:09:45.144Z,1028.1799999999998
2023-01-03T04:23:45.173Z,1028.1
2023-01-03T04:37:45.188Z,1028.22
2023-01-03T04:51:45.180Z,1028.28
2023-01-03T05:05:45.179Z,1028.35
2023-01-03T05:19:45.541Z,1028.24
2023-01-03T05:33:45.251Z,1028.38
2023-01-03T05:47:45.245Z,1028.21
2023-01-03T06:01:45.317Z,1028.3
2023-01-03T06:15:45.225Z,1028.3400000000001
2023-01-03T06:29:45.231Z,1028.6100000000001
2023-01-03T06:44:45.267Z,1028.6599999999999
2023-01-03T06:59:45.252Z,1028.6799999999998
2023-01-03T07:14:45.240Z,1028.71
2023-01-03T07:29:45.255Z,1028.79
2023-01-03T07:44:45.255Z,1028.83
2023-01-03T07:59:45.286Z,1028.83
2023-01-03T08:14:45.273Z,1028.92
2023-01-03T08:29:45.309Z,1029.1100000000001
2023-01-03T08:44:45.411Z,1029.3200000000002
2023-01-03T08:59:45.335Z,1029.28
2023-01-03T09:14:45.371Z,1029.37
2023-01-03T09:29:45.411Z,1029.42
2023-01-03T09:44:45.391Z,1029.31
2023-01-03T09:59:45.422Z,1029.2
2023-01-03T10:14:45.457Z,1029.05
2023-01-03T10:29:45.427Z,1028.77
2023-01-03T10:44:45.457Z,1028.81
2023-01-03T10:59:45.444Z,1028.5700000000002
2023-01-03T11:14:45.436Z,1028.42
2023-01-03T11:29:45.442Z,1028.33
2023-01-03T11:44:45.458Z,1028.19
2023-01-03T11:59:45.480Z,1028.0700000000002
2023-01-03T12:14:45.478Z,1027.92
2023-01-03T12:29:45.486Z,1027.83
2023-01-03T12:44:45.486Z,1027.72
2023-01-03T12:59:45.481Z,1027.6799999999998
2023-01-03T13:14:45.484Z,1027.6799999999998
2023-01-03T13:29:45.527Z,1027.63
2023-01-03T13:44:45.507Z,1027.55
2023-01-03T13:59:45.492Z,1027.5
2023-01-03T14:14:45.488Z,1027.53
2023-01-03T14:29:45.480Z,1027.69
2023-01-03T14:44:45.522Z,1027.94
2023-01-03T14:59:45.550Z,1028.03
2023-01-03T15:14:45.547Z,1027.8899999999999
2023-01-03T15:29:45.559Z,1028
2023-01-03T15:45:45.615Z,1028.17
2023-01-03T16:00:45.649Z,1028.15
2023-01-03T16:15:45.551Z,1028.24
2023-01-03T16:30:45.577Z,1028.33
2023-01-03T16:44:45.744Z,1028.29
2023-01-03T16:58:45.623Z,1028.5
2023-01-03T17:12:45.682Z,1028.55
2023-01-03T17:26:45.701Z,1028.67
2023-01-03T17:40:45.725Z,1028.71
2023-01-03T17:54:45.728Z,1028.75
2023-01-03T18:08:45.765Z,1028.8899999999999
2023-01-03T18:22:45.795Z,1028.96
2023-01-03T18:36:45.757Z,1028.8899999999999
2023-01-03T18:50:46.307Z,1028.99
2023-01-03T19:04:50.984Z,1029.0700000000002
2023-01-03T19:18:45.788Z,1029.1599999999999
2023-01-03T19:32:45.779Z,1029.3600000000001
2023-01-03T19:46:45.808Z,1029.35
2023-01-03T20:00:45.797Z,1029.25
2023-01-03T20:14:45.834Z,1029.4
2023-01-03T20:28:45.817Z,1029.23
2023-01-03T20:42:45.831Z,1029.37
2023-01-03T20:56:45.830Z,1029.3
2023-01-03T21:10:45.878Z,1029.6
2023-01-03T21:24:46.094Z,1029.48
2023-01-03T21:38:45.893Z,1029.52
2023-01-03T21:52:46.015Z,1029.62
2023-01-03T22:06:45.984Z,1029.55
2023-01-03T22:20:46.004Z,1029.53
2023-01-03T22:34:46.007Z,1029.6100000000001
2023-01-03T22:48:46.002Z,1029.77
2023-01-03T23:02:46.096Z,1029.6
2023-01-03T23:16:46.113Z,1029.7
2023-01-03T23:30:46.110Z,1029.7
2023-01-03T23:44:46.061Z,1029.63
2023-01-03T23:58:46.147Z,1029.54
